Driscoll, North Dakota
Current Conditions -  °F | °C
As of 8:52 PM on Thursday 18 Dec 2014 (Local Time) from KBIS Reporting Station
Overcast Overcast  
Wind Chill: 27°   Ceiling: 1400
Heat Index: 27°   Visibility: 8mi
Dew Point: 25°   Wind: 3mph
Humidity: 92%   Direction: 200°SSW
Pressure: 30.03"   Gusts: NA
Location:  46.84°N, 100.14°W
Report Text: KBIS 190252Z 20003KT 8SM OVC014 M03/M04 A3003 RMK AO2 SLP195 T10281039 50000
Loading
Personal Weather Stations






























Interactive Weather Map New forecast layout! Learn more

10-Day Weather Forecast

Advertisements
Track Severe Weather on mobile